KBIS

Bismarck Municipal Airport

Bismarck, North Dakota, USA
METAR KBIS 220452Z 35007KT 1 3/4SM -SN BR OVC024 M12/M14 A2999 RMK AO2 SLP193 P0002 T11221144
Observed Flight Rules
Jan-22 @ 04:52 UTC (10 minutes ago) Instrument Flight Rules
Wind Visibility Clouds Conditions
350° at 7 knots 1 3/4 miles
  • Overcast at 2,400' AGL
  • Light Snow
  • Mist
Temperatures Readings Precipitation
Current -12°C / 10°F
Dewpoint -14°C / 7°F
Humidity 85%
Altimeter 29.99" Hg
Pressure 1019.3 hPa
Elevation 505
Current Rain 0.02
METAR KBIS 220452Z 35007KT 1 3/4SM -SN BR OVC024 M12/M14 A2999 RMK AO2 SLP193 P0002 T11221144
Observed Flight Rules
Jan-22 @ 04:52 UTC
(10 minutes ago)
IFR
Wind Visibility
350° at 7 knots 1 3/4 miles
Clouds
  • Overcast at 2,400' AGL
Conditions
  • Light Snow
  • Mist
Temperature Dewpoint
-12°C / 10°F -14°C / 7°F
Humidity Altimeter Pressure
85% 29.99" Hg 1019.3 hPa
Current Rain
0.02